Terminal Aerodrome Forecast
Issued by NWS

Home | Current Version | Previous Version | Text Only | Print | Product List | Glossary On
Versions: 1 2 3 4 5 6 7 8 9 10 11 12 13
000
FTUS42 KTAE 011736
TAFDHN
TAF
KDHN 011736Z 0118/0218 05008KT P6SM BKN045
      TEMPO 0120/0124 5SM TSRA BKN035CB
     FM020000 06004KT P6SM VCSH SCT050 BKN080
      TEMPO 0209/0213 5SM BR SCT005=

USA.gov is the U.S. government's official web portal to all federal, state and local government web resources and services.